createdAt,value
2023-03-21T00:00:22.297Z,8.30
2023-03-21T00:05:31.029Z,8.30
2023-03-21T00:10:41.665Z,8.30
2023-03-21T00:16:08.052Z,8.20
2023-03-21T00:21:38.437Z,8.10
2023-03-21T00:26:17.897Z,8.20
2023-03-21T00:31:24.826Z,8.20
2023-03-21T00:36:33.554Z,8.10
2023-03-21T00:41:43.443Z,7.90
2023-03-21T00:47:05.967Z,8.00
2023-03-21T00:52:08.743Z,8.10
2023-03-21T00:57:07.414Z,8.20
2023-03-21T01:02:15.778Z,8.00
2023-03-21T01:07:24.496Z,8.00
2023-03-21T01:12:31.496Z,8.10
2023-03-21T01:17:38.764Z,8.10
2023-03-21T01:22:45.174Z,8.00
2023-03-21T01:27:51.940Z,7.90
2023-03-21T01:32:58.759Z,7.90
2023-03-21T01:38:06.312Z,7.90
2023-03-21T01:43:26.989Z,7.90
2023-03-21T01:48:35.138Z,8.10
2023-03-21T01:53:43.206Z,8.00
2023-03-21T01:58:50.766Z,7.90
2023-03-21T02:03:58.008Z,7.90
2023-03-21T02:09:09.058Z,7.90
2023-03-21T02:14:28.250Z,7.90
2023-03-21T02:20:12.273Z,7.80
2023-03-21T02:25:49.517Z,7.80
2023-03-21T02:31:21.264Z,7.90
2023-03-21T02:36:51.427Z,7.80
2023-03-21T02:42:17.198Z,7.90
2023-03-21T02:47:28.760Z,7.90
2023-03-21T02:52:39.712Z,7.90
2023-03-21T02:57:50.492Z,7.80
2023-03-21T03:03:08.650Z,7.90
2023-03-21T03:08:50.111Z,8.00
2023-03-21T03:14:31.571Z,8.00
2023-03-21T03:19:36.606Z,7.90
2023-03-21T03:25:04.742Z,7.80
2023-03-21T03:30:11.904Z,7.80
2023-03-21T03:35:21.280Z,7.70
2023-03-21T03:40:44.057Z,7.80
2023-03-21T03:45:55.964Z,7.90
2023-03-21T03:51:12.671Z,7.80
2023-03-21T03:56:19.718Z,7.70
2023-03-21T04:01:27.126Z,7.70
2023-03-21T04:06:34.917Z,7.70
2023-03-21T04:11:41.470Z,7.60
2023-03-21T04:16:49.361Z,7.40
2023-03-21T04:21:56.178Z,7.40
2023-03-21T04:27:04.000Z,7.30
2023-03-21T04:32:12.582Z,7.30
2023-03-21T04:37:24.204Z,7.20
2023-03-21T04:42:31.298Z,7.00
2023-03-21T04:47:38.534Z,7.00
2023-03-21T04:52:46.118Z,7.20
2023-03-21T04:57:56.493Z,7.20
2023-03-21T05:03:03.543Z,7.10
2023-03-21T05:08:12.002Z,7.10
2023-03-21T05:13:18.957Z,7.30
2023-03-21T05:18:26.640Z,7.30
2023-03-21T05:23:36.228Z,7.40
2023-03-21T05:28:44.788Z,7.60
2023-03-21T05:33:53.268Z,7.60
2023-03-21T05:39:02.063Z,7.70
2023-03-21T05:44:08.896Z,7.70
2023-03-21T05:49:15.588Z,7.60
2023-03-21T05:54:22.670Z,7.70
2023-03-21T05:59:30.654Z,7.70
2023-03-21T06:04:37.728Z,7.70
2023-03-21T06:09:44.739Z,7.60
2023-03-21T06:14:53.622Z,7.40
2023-03-21T06:20:01.302Z,7.50
2023-03-21T06:25:10.020Z,7.50
2023-03-21T06:30:18.099Z,7.30
2023-03-21T06:35:26.153Z,7.20
2023-03-21T06:40:33.446Z,7.10
2023-03-21T06:45:40.298Z,7.20
2023-03-21T06:50:50.900Z,7.30
2023-03-21T06:55:58.325Z,7.10
2023-03-21T07:01:07.214Z,7.30
2023-03-21T07:06:15.552Z,7.40
2023-03-21T07:11:25.140Z,7.40
2023-03-21T07:16:32.317Z,7.50
2023-03-21T07:21:39.747Z,7.50
2023-03-21T07:26:46.489Z,7.20
2023-03-21T07:31:53.025Z,7.30
2023-03-21T07:36:59.753Z,7.50
2023-03-21T07:47:15.689Z,7.80
2023-03-21T07:52:22.550Z,7.80
2023-03-21T07:57:28.758Z,7.60
2023-03-21T08:02:35.996Z,7.80
2023-03-21T08:07:42.968Z,8.00
2023-03-21T08:12:51.091Z,7.30
2023-03-21T08:18:01.069Z,7.60
2023-03-21T08:23:07.917Z,7.50
2023-03-21T08:28:14.643Z,7.70
2023-03-21T08:33:22.461Z,7.90
2023-03-21T08:38:30.746Z,8.10
2023-03-21T08:43:37.373Z,8.10
2023-03-21T08:48:44.228Z,8.40
2023-03-21T08:53:55.315Z,8.40
2023-03-21T08:59:03.531Z,8.40
2023-03-21T09:04:11.577Z,8.70
2023-03-21T09:09:18.770Z,8.70
2023-03-21T09:14:28.899Z,8.70
2023-03-21T09:19:35.333Z,8.80
2023-03-21T09:24:43.357Z,8.70
2023-03-21T09:29:53.081Z,8.90
2023-03-21T09:35:00.246Z,9.00
2023-03-21T09:40:10.084Z,9.00
2023-03-21T09:45:24.438Z,9.10
2023-03-21T09:50:41.129Z,9.20
2023-03-21T09:55:53.049Z,9.20
2023-03-21T10:01:32.587Z,9.50
2023-03-21T10:06:41.381Z,9.40
2023-03-21T10:12:08.616Z,9.40
2023-03-21T10:17:47.321Z,9.20
2023-03-21T10:22:57.018Z,9.50
2023-03-21T10:28:06.322Z,9.20
2023-03-21T10:33:19.242Z,9.50
2023-03-21T10:38:28.172Z,9.60
2023-03-21T10:43:38.653Z,9.90
2023-03-21T10:48:49.293Z,9.80
2023-03-21T10:54:09.481Z,10.20
2023-03-21T10:59:25.510Z,10.50
2023-03-21T11:04:31.930Z,10.30
2023-03-21T11:10:00.206Z,10.60
2023-03-21T11:15:31.031Z,10.80
2023-03-21T11:20:44.083Z,11.30
2023-03-21T11:25:53.292Z,10.20
2023-03-21T11:31:07.280Z,10.10
2023-03-21T11:36:28.628Z,10.40
2023-03-21T11:41:36.814Z,10.20
2023-03-21T11:46:43.569Z,10.70
2023-03-21T11:52:05.401Z,10.70
2023-03-21T11:57:40.727Z,9.90
2023-03-21T12:03:19.099Z,9.80
2023-03-21T12:08:54.806Z,10.00
2023-03-21T12:14:15.133Z,10.30
2023-03-21T12:19:54.345Z,10.30
2023-03-21T12:25:10.818Z,9.80
2023-03-21T12:30:59.030Z,10.70
2023-03-21T12:36:11.229Z,11.30
2023-03-21T12:41:34.507Z,11.50
2023-03-21T12:46:49.037Z,11.70
2023-03-21T12:52:05.970Z,11.60
2023-03-21T12:57:40.166Z,11.80
2023-03-21T13:02:55.699Z,11.70
2023-03-21T13:08:25.227Z,11.70
2023-03-21T13:13:38.976Z,11.90
2023-03-21T13:19:02.060Z,11.80
2023-03-21T13:24:32.781Z,11.70
2023-03-21T13:29:52.584Z,12.00
2023-03-21T13:35:06.628Z,12.00
2023-03-21T13:40:24.969Z,11.80
2023-03-21T13:45:48.195Z,11.90
2023-03-21T13:51:06.749Z,11.60
2023-03-21T13:56:22.800Z,12.00
2023-03-21T14:01:45.164Z,12.00
2023-03-21T14:07:02.769Z,12.10
2023-03-21T14:12:14.055Z,12.20
2023-03-21T14:17:46.679Z,12.00
2023-03-21T14:22:54.801Z,12.20
2023-03-21T14:28:06.043Z,12.40
2023-03-21T14:33:34.537Z,12.20
2023-03-21T14:38:42.159Z,12.40
2023-03-21T14:44:13.877Z,12.20
2023-03-21T14:49:31.348Z,12.20
2023-03-21T14:54:41.606Z,12.30
2023-03-21T14:59:55.164Z,12.30
2023-03-21T15:05:31.774Z,12.30
2023-03-21T15:10:39.400Z,12.10
2023-03-21T15:15:47.143Z,12.20
2023-03-21T15:20:54.460Z,11.90
2023-03-21T15:26:03.154Z,12.00
2023-03-21T15:31:18.946Z,12.00
2023-03-21T15:36:34.567Z,12.00
2023-03-21T15:41:43.519Z,11.80
2023-03-21T15:46:53.355Z,11.80
2023-03-21T15:52:16.385Z,11.70
2023-03-21T15:57:29.643Z,11.60
2023-03-21T16:02:37.166Z,11.80
2023-03-21T16:07:49.092Z,11.70
2023-03-21T16:12:56.400Z,11.70
2023-03-21T16:18:06.747Z,11.70
2023-03-21T16:23:16.426Z,11.70
2023-03-21T16:28:23.210Z,11.40
2023-03-21T16:33:29.954Z,11.30
2023-03-21T16:38:35.473Z,11.10
2023-03-21T16:43:45.487Z,11.00
2023-03-21T16:48:56.366Z,11.10
2023-03-21T16:54:03.974Z,11.30
2023-03-21T16:59:14.760Z,11.20
2023-03-21T17:04:22.295Z,11.20
2023-03-21T17:09:30.268Z,11.20
2023-03-21T17:14:46.610Z,10.60
2023-03-21T17:19:54.066Z,10.40
2023-03-21T17:25:02.884Z,10.30
2023-03-21T17:30:20.977Z,10.40
2023-03-21T17:35:29.550Z,10.10
2023-03-21T17:40:37.029Z,10.00
2023-03-21T17:45:44.431Z,9.90
2023-03-21T17:50:51.438Z,9.30
2023-03-21T17:55:58.541Z,9.40
2023-03-21T18:01:05.243Z,9.40
2023-03-21T18:06:19.970Z,9.20
2023-03-21T18:11:28.430Z,9.40
2023-03-21T18:16:35.394Z,9.50
2023-03-21T18:21:45.881Z,9.50
2023-03-21T18:26:52.764Z,9.40
2023-03-21T18:32:06.830Z,9.50
2023-03-21T18:37:13.331Z,9.40
2023-03-21T18:42:22.498Z,9.40
2023-03-21T18:47:28.670Z,9.30
2023-03-21T18:52:35.617Z,9.40
2023-03-21T18:57:43.597Z,9.30
2023-03-21T19:03:13.080Z,9.30
2023-03-21T19:08:06.903Z,9.40
2023-03-21T19:13:15.357Z,9.30
2023-03-21T19:18:53.620Z,9.20
2023-03-21T19:23:43.548Z,9.30
2023-03-21T19:28:41.556Z,9.20
2023-03-21T19:33:49.731Z,9.10
2023-03-21T19:38:56.571Z,9.10
2023-03-21T19:44:03.364Z,9.10
2023-03-21T19:49:11.927Z,9.20
2023-03-21T19:54:19.197Z,9.20
2023-03-21T19:59:28.032Z,9.30
2023-03-21T20:04:35.518Z,9.20
2023-03-21T20:09:51.931Z,9.30
2023-03-21T20:15:01.620Z,9.30
2023-03-21T20:20:01.802Z,9.20
2023-03-21T20:25:09.959Z,9.30
2023-03-21T20:30:20.307Z,9.20
2023-03-21T20:36:05.415Z,9.30
2023-03-21T20:40:35.563Z,9.30
2023-03-21T20:45:43.405Z,9.20
2023-03-21T20:50:57.834Z,9.10
2023-03-21T20:56:03.194Z,8.60
2023-03-21T21:01:12.304Z,8.40
2023-03-21T21:06:21.859Z,8.60
2023-03-21T21:16:37.505Z,8.70
2023-03-21T21:21:46.763Z,8.30
2023-03-21T21:26:53.796Z,8.60
2023-03-21T21:32:04.847Z,8.10
2023-03-21T21:37:12.176Z,8.30
2023-03-21T21:42:21.595Z,8.30
2023-03-21T21:47:29.165Z,8.60
2023-03-21T21:52:36.173Z,8.00
2023-03-21T21:57:43.541Z,8.30
2023-03-21T22:02:50.877Z,8.40
2023-03-21T22:07:59.669Z,8.20
2023-03-21T22:13:07.143Z,8.20
2023-03-21T22:18:15.103Z,8.40
2023-03-21T22:23:22.103Z,8.50
2023-03-21T22:28:29.253Z,8.40
2023-03-21T22:33:36.592Z,8.50
2023-03-21T22:38:44.075Z,8.60
2023-03-21T22:43:51.342Z,8.20
2023-03-21T22:48:58.763Z,8.50
2023-03-21T22:54:06.303Z,8.40
2023-03-21T22:59:14.049Z,8.50
2023-03-21T23:04:23.928Z,8.60
2023-03-21T23:09:31.490Z,8.60
2023-03-21T23:14:39.077Z,8.60
2023-03-21T23:19:45.931Z,8.40
2023-03-21T23:24:53.132Z,8.30
2023-03-21T23:30:00.703Z,8.40
2023-03-21T23:35:09.633Z,8.50
2023-03-21T23:40:16.740Z,8.40
2023-03-21T23:45:23.436Z,8.50
2023-03-21T23:50:29.730Z,8.60
2023-03-21T23:55:39.450Z,8.60
